sensor_id;sensor_type;location;lat;lon;timestamp;pressure;altitude;pressure_sealevel;temperature;humidity
5812;BME280;2932;52.400;9.558;2023-03-14T00:01:13;98407.06;;;16.13;62.10
5812;BME280;2932;52.400;9.558;2023-03-14T00:03:38;98394.78;;;15.61;63.00
5812;BME280;2932;52.400;9.558;2023-03-14T00:06:04;98387.91;;;15.82;62.52
5812;BME280;2932;52.400;9.558;2023-03-14T00:08:30;98385.47;;;16.00;62.20
5812;BME280;2932;52.400;9.558;2023-03-14T00:10:55;98353.00;;;16.23;61.13
5812;BME280;2932;52.400;9.558;2023-03-14T00:13:23;98354.97;;;15.93;61.69
5812;BME280;2932;52.400;9.558;2023-03-14T00:15:49;98352.78;;;16.01;62.06
5812;BME280;2932;52.400;9.558;2023-03-14T00:18:14;98330.41;;;15.72;62.54
5812;BME280;2932;52.400;9.558;2023-03-14T00:20:39;98339.66;;;15.69;62.64
5812;BME280;2932;52.400;9.558;2023-03-14T00:23:05;98340.25;;;15.93;62.12
5812;BME280;2932;52.400;9.558;2023-03-14T00:25:30;98338.00;;;16.17;61.49
5812;BME280;2932;52.400;9.558;2023-03-14T00:27:55;98348.75;;;16.47;60.90
5812;BME280;2932;52.400;9.558;2023-03-14T00:30:21;98360.22;;;15.75;62.54
5812;BME280;2932;52.400;9.558;2023-03-14T00:32:47;98381.88;;;16.16;61.76
5812;BME280;2932;52.400;9.558;2023-03-14T00:35:12;98375.94;;;16.14;61.57
5812;BME280;2932;52.400;9.558;2023-03-14T00:37:38;98369.81;;;16.36;61.55
5812;BME280;2932;52.400;9.558;2023-03-14T00:40:03;98368.59;;;16.37;61.20
5812;BME280;2932;52.400;9.558;2023-03-14T00:42:32;98386.59;;;16.64;60.37
5812;BME280;2932;52.400;9.558;2023-03-14T00:44:57;98389.25;;;16.39;60.82
5812;BME280;2932;52.400;9.558;2023-03-14T00:47:22;98378.69;;;16.76;60.48
5812;BME280;2932;52.400;9.558;2023-03-14T00:49:48;98390.53;;;16.80;59.99
5812;BME280;2932;52.400;9.558;2023-03-14T00:52:13;98394.19;;;16.48;60.46
5812;BME280;2932;52.400;9.558;2023-03-14T00:54:38;98380.28;;;16.31;60.91
5812;BME280;2932;52.400;9.558;2023-03-14T00:57:04;98372.78;;;16.28;61.54
5812;BME280;2932;52.400;9.558;2023-03-14T00:59:29;98370.06;;;15.80;62.62
5812;BME280;2932;52.400;9.558;2023-03-14T01:01:54;98370.13;;;15.60;63.00
5812;BME280;2932;52.400;9.558;2023-03-14T01:04:20;98354.91;;;15.81;62.76
5812;BME280;2932;52.400;9.558;2023-03-14T01:06:45;98348.97;;;15.79;62.61
5812;BME280;2932;52.400;9.558;2023-03-14T01:09:10;98347.19;;;16.01;62.25
5812;BME280;2932;52.400;9.558;2023-03-14T01:11:36;98329.56;;;15.59;63.37
5812;BME280;2932;52.400;9.558;2023-03-14T01:14:02;98326.00;;;15.58;63.33
5812;BME280;2932;52.400;9.558;2023-03-14T01:16:31;98329.53;;;15.91;62.64
5812;BME280;2932;52.400;9.558;2023-03-14T01:18:56;98342.09;;;15.67;62.85
5812;BME280;2932;52.400;9.558;2023-03-14T01:21:27;98338.00;;;15.72;62.77
5812;BME280;2932;52.400;9.558;2023-03-14T01:23:55;98314.63;;;15.49;63.47
5812;BME280;2932;52.400;9.558;2023-03-14T01:26:23;98318.06;;;15.57;63.61
5812;BME280;2932;52.400;9.558;2023-03-14T01:28:50;98307.94;;;15.63;63.48
5812;BME280;2932;52.400;9.558;2023-03-14T01:31:16;98341.81;;;15.45;63.87
5812;BME280;2932;52.400;9.558;2023-03-14T01:33:41;98326.94;;;14.99;65.13
5812;BME280;2932;52.400;9.558;2023-03-14T01:36:08;98316.09;;;15.21;64.54
5812;BME280;2932;52.400;9.558;2023-03-14T01:38:35;98323.22;;;15.06;64.83
5812;BME280;2932;52.400;9.558;2023-03-14T01:41:01;98348.50;;;14.95;65.25
5812;BME280;2932;52.400;9.558;2023-03-14T01:43:27;98342.78;;;15.02;64.94
5812;BME280;2932;52.400;9.558;2023-03-14T01:51:34;98293.00;;;15.21;64.71
5812;BME280;2932;52.400;9.558;2023-03-14T01:56:39;98280.53;;;14.93;64.84
5812;BME280;2932;52.400;9.558;2023-03-14T01:59:08;98291.75;;;15.58;63.83
5812;BME280;2932;52.400;9.558;2023-03-14T02:01:35;98307.59;;;14.92;64.87
5812;BME280;2932;52.400;9.558;2023-03-14T02:04:03;98292.84;;;15.28;64.45
5812;BME280;2932;52.400;9.558;2023-03-14T02:06:35;98307.72;;;15.21;64.33
5812;BME280;2932;52.400;9.558;2023-03-14T02:09:02;98295.13;;;15.33;63.71
5812;BME280;2932;52.400;9.558;2023-03-14T02:11:29;98294.94;;;15.40;63.54
5812;BME280;2932;52.400;9.558;2023-03-14T02:13:56;98320.72;;;15.28;63.96
5812;BME280;2932;52.400;9.558;2023-03-14T02:16:23;98347.78;;;15.27;63.92
5812;BME280;2932;52.400;9.558;2023-03-14T02:18:48;98319.94;;;15.44;63.14
5812;BME280;2932;52.400;9.558;2023-03-14T02:21:32;98314.47;;;15.40;63.44
5812;BME280;2932;52.400;9.558;2023-03-14T02:27:07;98318.44;;;15.23;63.43
5812;BME280;2932;52.400;9.558;2023-03-14T02:29:35;98315.75;;;15.35;63.78
5812;BME280;2932;52.400;9.558;2023-03-14T02:32:01;98303.13;;;15.15;64.00
5812;BME280;2932;52.400;9.558;2023-03-14T02:34:27;98307.47;;;15.16;63.89
5812;BME280;2932;52.400;9.558;2023-03-14T02:36:52;98294.06;;;15.11;64.28
5812;BME280;2932;52.400;9.558;2023-03-14T02:39:23;98280.41;;;15.49;63.11
5812;BME280;2932;52.400;9.558;2023-03-14T02:41:51;98295.13;;;15.49;62.99
5812;BME280;2932;52.400;9.558;2023-03-14T02:44:16;98283.03;;;15.72;62.71
5812;BME280;2932;52.400;9.558;2023-03-14T02:46:42;98272.56;;;15.44;63.15
5812;BME280;2932;52.400;9.558;2023-03-14T02:49:10;98280.94;;;15.44;62.58
5812;BME280;2932;52.400;9.558;2023-03-14T02:51:37;98284.63;;;15.57;62.59
5812;BME280;2932;52.400;9.558;2023-03-14T02:54:04;98274.41;;;15.34;62.96
5812;BME280;2932;52.400;9.558;2023-03-14T02:56:29;98278.66;;;15.39;63.00
5812;BME280;2932;52.400;9.558;2023-03-14T02:58:55;98279.38;;;15.43;62.52
5812;BME280;2932;52.400;9.558;2023-03-14T03:01:22;98284.81;;;14.97;63.95
5812;BME280;2932;52.400;9.558;2023-03-14T03:03:48;98278.31;;;15.20;63.52
5812;BME280;2932;52.400;9.558;2023-03-14T03:06:13;98280.06;;;15.47;63.42
5812;BME280;2932;52.400;9.558;2023-03-14T03:08:38;98278.59;;;15.42;63.18
5812;BME280;2932;52.400;9.558;2023-03-14T03:11:05;98267.16;;;15.37;62.93
5812;BME280;2932;52.400;9.558;2023-03-14T03:13:30;98262.50;;;15.17;62.69
5812;BME280;2932;52.400;9.558;2023-03-14T03:15:55;98253.16;;;15.08;63.85
5812;BME280;2932;52.400;9.558;2023-03-14T03:18:21;98259.34;;;15.15;63.74
5812;BME280;2932;52.400;9.558;2023-03-14T03:20:46;98258.56;;;15.15;63.48
5812;BME280;2932;52.400;9.558;2023-03-14T03:23:12;98255.59;;;15.06;63.51
5812;BME280;2932;52.400;9.558;2023-03-14T03:25:37;98243.91;;;14.94;64.17
5812;BME280;2932;52.400;9.558;2023-03-14T03:28:03;98249.06;;;15.28;63.07
5812;BME280;2932;52.400;9.558;2023-03-14T03:30:33;98246.00;;;15.39;62.66
5812;BME280;2932;52.400;9.558;2023-03-14T03:32:59;98239.84;;;15.48;62.95
5812;BME280;2932;52.400;9.558;2023-03-14T03:35:24;98252.56;;;15.16;63.55
5812;BME280;2932;52.400;9.558;2023-03-14T03:37:49;98247.50;;;14.95;64.30
5812;BME280;2932;52.400;9.558;2023-03-14T03:40:15;98263.84;;;14.93;64.91
5812;BME280;2932;52.400;9.558;2023-03-14T03:42:40;98289.63;;;13.78;70.29
5812;BME280;2932;52.400;9.558;2023-03-14T03:45:06;98279.44;;;13.48;71.32
5812;BME280;2932;52.400;9.558;2023-03-14T03:47:31;98277.31;;;13.56;71.56
5812;BME280;2932;52.400;9.558;2023-03-14T03:49:57;98272.44;;;12.86;71.94
5812;BME280;2932;52.400;9.558;2023-03-14T03:52:22;98271.63;;;13.16;72.13
5812;BME280;2932;52.400;9.558;2023-03-14T03:54:47;98261.50;;;13.29;71.31
5812;BME280;2932;52.400;9.558;2023-03-14T03:57:12;98265.28;;;12.89;71.86
5812;BME280;2932;52.400;9.558;2023-03-14T03:59:38;98262.03;;;12.67;71.77
5812;BME280;2932;52.400;9.558;2023-03-14T04:02:05;98264.66;;;13.05;71.26
5812;BME280;2932;52.400;9.558;2023-03-14T04:04:30;98266.22;;;13.56;69.29
5812;BME280;2932;52.400;9.558;2023-03-14T04:06:56;98258.66;;;13.33;69.93
5812;BME280;2932;52.400;9.558;2023-03-14T04:09:21;98270.59;;;13.30;70.03
5812;BME280;2932;52.400;9.558;2023-03-14T04:11:46;98257.63;;;13.47;70.15
5812;BME280;2932;52.400;9.558;2023-03-14T04:14:11;98252.44;;;13.25;70.66
5812;BME280;2932;52.400;9.558;2023-03-14T04:16:37;98251.47;;;13.35;70.42
5812;BME280;2932;52.400;9.558;2023-03-14T04:19:02;98261.09;;;13.04;70.99
5812;BME280;2932;52.400;9.558;2023-03-14T04:21:28;98251.25;;;12.99;71.16
5812;BME280;2932;52.400;9.558;2023-03-14T04:23:53;98250.84;;;12.74;71.81
5812;BME280;2932;52.400;9.558;2023-03-14T04:26:19;98250.22;;;13.17;70.42
5812;BME280;2932;52.400;9.558;2023-03-14T04:28:44;98239.00;;;12.70;71.00
5812;BME280;2932;52.400;9.558;2023-03-14T04:31:12;98253.91;;;12.80;71.14
5812;BME280;2932;52.400;9.558;2023-03-14T04:33:38;98246.03;;;12.78;70.93
5812;BME280;2932;52.400;9.558;2023-03-14T04:36:05;98242.81;;;12.80;70.82
5812;BME280;2932;52.400;9.558;2023-03-14T04:38:31;98242.09;;;12.45;71.78
5812;BME280;2932;52.400;9.558;2023-03-14T04:40:56;98253.63;;;12.74;71.35
5812;BME280;2932;52.400;9.558;2023-03-14T04:43:22;98233.50;;;12.66;70.77
5812;BME280;2932;52.400;9.558;2023-03-14T04:45:47;98228.47;;;12.58;71.04
5812;BME280;2932;52.400;9.558;2023-03-14T04:48:12;98243.25;;;12.78;70.61
5812;BME280;2932;52.400;9.558;2023-03-14T04:50:38;98232.28;;;12.94;70.30
5812;BME280;2932;52.400;9.558;2023-03-14T04:53:04;98226.25;;;12.46;71.05
5812;BME280;2932;52.400;9.558;2023-03-14T04:55:31;98231.50;;;12.67;70.12
5812;BME280;2932;52.400;9.558;2023-03-14T04:57:57;98224.84;;;12.88;70.13
5812;BME280;2932;52.400;9.558;2023-03-14T05:00:22;98221.28;;;12.87;69.74
5812;BME280;2932;52.400;9.558;2023-03-14T05:02:48;98231.22;;;12.85;69.92
5812;BME280;2932;52.400;9.558;2023-03-14T05:05:13;98217.16;;;12.99;69.38
5812;BME280;2932;52.400;9.558;2023-03-14T05:07:38;98208.78;;;12.49;70.46
5812;BME280;2932;52.400;9.558;2023-03-14T05:10:04;98205.03;;;12.35;71.23
5812;BME280;2932;52.400;9.558;2023-03-14T05:12:29;98188.38;;;12.62;70.86
5812;BME280;2932;52.400;9.558;2023-03-14T05:14:54;98194.88;;;13.02;70.09
5812;BME280;2932;52.400;9.558;2023-03-14T05:17:20;98188.53;;;12.52;71.15
5812;BME280;2932;52.400;9.558;2023-03-14T05:19:45;98195.34;;;12.74;70.43
5812;BME280;2932;52.400;9.558;2023-03-14T05:22:12;98197.03;;;12.11;72.95
5812;BME280;2932;52.400;9.558;2023-03-14T05:24:38;98191.72;;;12.23;72.93
5812;BME280;2932;52.400;9.558;2023-03-14T05:27:04;98190.28;;;12.12;72.88
5812;BME280;2932;52.400;9.558;2023-03-14T05:29:29;98228.28;;;12.11;73.26
5812;BME280;2932;52.400;9.558;2023-03-14T05:31:55;98216.16;;;12.32;72.75
5812;BME280;2932;52.400;9.558;2023-03-14T05:34:20;98205.56;;;12.23;73.44
5812;BME280;2932;52.400;9.558;2023-03-14T05:36:45;98216.69;;;12.50;73.09
5812;BME280;2932;52.400;9.558;2023-03-14T05:39:11;98209.91;;;12.24;73.25
5812;BME280;2932;52.400;9.558;2023-03-14T05:41:36;98213.69;;;12.07;74.13
5812;BME280;2932;52.400;9.558;2023-03-14T05:44:02;98210.41;;;12.16;74.19
5812;BME280;2932;52.400;9.558;2023-03-14T05:46:27;98215.38;;;12.31;73.67
5812;BME280;2932;52.400;9.558;2023-03-14T05:48:54;98205.63;;;12.20;73.41
5812;BME280;2932;52.400;9.558;2023-03-14T05:51:19;98202.97;;;12.40;73.25
5812;BME280;2932;52.400;9.558;2023-03-14T05:53:44;98211.66;;;12.42;72.73
5812;BME280;2932;52.400;9.558;2023-03-14T05:56:10;98217.31;;;12.34;73.04
5812;BME280;2932;52.400;9.558;2023-03-14T05:58:35;98209.88;;;12.55;72.81
5812;BME280;2932;52.400;9.558;2023-03-14T06:01:05;98218.78;;;12.96;71.55
5812;BME280;2932;52.400;9.558;2023-03-14T06:03:31;98220.97;;;12.55;71.89
5812;BME280;2932;52.400;9.558;2023-03-14T06:05:56;98212.56;;;12.35;72.62
5812;BME280;2932;52.400;9.558;2023-03-14T06:08:22;98211.00;;;12.61;72.30
5812;BME280;2932;52.400;9.558;2023-03-14T06:10:47;98199.56;;;12.55;72.28
5812;BME280;2932;52.400;9.558;2023-03-14T06:13:12;98230.31;;;12.68;71.58
5812;BME280;2932;52.400;9.558;2023-03-14T06:15:38;98205.47;;;12.30;73.08
5812;BME280;2932;52.400;9.558;2023-03-14T06:18:03;98201.75;;;12.94;71.47
5812;BME280;2932;52.400;9.558;2023-03-14T06:20:29;98204.47;;;12.98;70.45
5812;BME280;2932;52.400;9.558;2023-03-14T06:22:54;98211.41;;;12.32;72.78
5812;BME280;2932;52.400;9.558;2023-03-14T06:25:19;98229.56;;;12.64;72.26
5812;BME280;2932;52.400;9.558;2023-03-14T06:27:45;98215.84;;;12.80;71.23
5812;BME280;2932;52.400;9.558;2023-03-14T06:30:11;98232.03;;;12.58;71.67
5812;BME280;2932;52.400;9.558;2023-03-14T06:32:36;98210.69;;;13.06;70.67
5812;BME280;2932;52.400;9.558;2023-03-14T06:35:01;98212.38;;;12.99;71.35
5812;BME280;2932;52.400;9.558;2023-03-14T06:37:28;98214.47;;;12.92;70.91
5812;BME280;2932;52.400;9.558;2023-03-14T06:39:54;98227.19;;;13.40;69.98
5812;BME280;2932;52.400;9.558;2023-03-14T06:42:19;98220.84;;;12.65;71.27
5812;BME280;2932;52.400;9.558;2023-03-14T06:44:45;98221.22;;;12.91;70.65
5812;BME280;2932;52.400;9.558;2023-03-14T06:47:10;98214.34;;;13.26;69.57
5812;BME280;2932;52.400;9.558;2023-03-14T06:49:35;98214.09;;;12.90;69.80
5812;BME280;2932;52.400;9.558;2023-03-14T06:52:01;98220.13;;;13.12;68.41
5812;BME280;2932;52.400;9.558;2023-03-14T06:54:26;98222.81;;;12.92;69.67
5812;BME280;2932;52.400;9.558;2023-03-14T06:56:51;98215.97;;;12.73;69.81
5812;BME280;2932;52.400;9.558;2023-03-14T06:59:17;98221.03;;;13.52;68.12
5812;BME280;2932;52.400;9.558;2023-03-14T07:01:42;98242.53;;;13.24;67.99
5812;BME280;2932;52.400;9.558;2023-03-14T07:04:08;98234.91;;;13.05;68.49
5812;BME280;2932;52.400;9.558;2023-03-14T07:06:34;98227.09;;;12.96;69.11
5812;BME280;2932;52.400;9.558;2023-03-14T07:08:59;98220.38;;;13.44;68.22
5812;BME280;2932;52.400;9.558;2023-03-14T07:11:26;98209.38;;;13.37;67.96
5812;BME280;2932;52.400;9.558;2023-03-14T07:13:51;98221.44;;;13.03;68.71
5812;BME280;2932;52.400;9.558;2023-03-14T07:16:17;98230.16;;;13.29;68.21
5812;BME280;2932;52.400;9.558;2023-03-14T07:18:42;98230.66;;;13.47;67.88
5812;BME280;2932;52.400;9.558;2023-03-14T07:21:08;98232.06;;;13.09;68.02
5812;BME280;2932;52.400;9.558;2023-03-14T07:23:37;98241.38;;;13.22;68.25
5812;BME280;2932;52.400;9.558;2023-03-14T07:26:03;98228.22;;;13.26;68.17
5812;BME280;2932;52.400;9.558;2023-03-14T07:28:28;98236.34;;;13.13;68.60
5812;BME280;2932;52.400;9.558;2023-03-14T07:30:54;98237.88;;;13.41;67.91
5812;BME280;2932;52.400;9.558;2023-03-14T07:33:19;98234.63;;;13.46;67.61
5812;BME280;2932;52.400;9.558;2023-03-14T07:35:47;98240.94;;;12.73;70.25
5812;BME280;2932;52.400;9.558;2023-03-14T07:38:13;98249.22;;;12.77;70.65
5812;BME280;2932;52.400;9.558;2023-03-14T07:40:38;98243.22;;;12.51;71.69
5812;BME280;2932;52.400;9.558;2023-03-14T07:43:04;98249.97;;;12.50;72.55
5812;BME280;2932;52.400;9.558;2023-03-14T07:45:29;98263.28;;;12.62;72.17
5812;BME280;2932;52.400;9.558;2023-03-14T07:47:54;98254.44;;;12.41;74.07
5812;BME280;2932;52.400;9.558;2023-03-14T07:50:25;98257.38;;;12.60;72.90
5812;BME280;2932;52.400;9.558;2023-03-14T07:52:51;98247.09;;;12.84;72.86
5812;BME280;2932;52.400;9.558;2023-03-14T07:55:17;98245.75;;;12.96;71.50
5812;BME280;2932;52.400;9.558;2023-03-14T07:57:42;98243.28;;;12.75;72.75
5812;BME280;2932;52.400;9.558;2023-03-14T08:00:08;98250.41;;;13.02;72.15
5812;BME280;2932;52.400;9.558;2023-03-14T08:02:34;98251.16;;;13.30;70.89
5812;BME280;2932;52.400;9.558;2023-03-14T08:05:01;98265.75;;;13.11;71.58
5812;BME280;2932;52.400;9.558;2023-03-14T08:07:26;98244.28;;;13.38;71.08
5812;BME280;2932;52.400;9.558;2023-03-14T08:09:52;98262.09;;;13.41;70.88
5812;BME280;2932;52.400;9.558;2023-03-14T08:12:17;98252.69;;;13.08;72.29
5812;BME280;2932;52.400;9.558;2023-03-14T08:14:42;98249.78;;;13.18;72.18
5812;BME280;2932;52.400;9.558;2023-03-14T08:17:08;98265.75;;;13.11;72.79
5812;BME280;2932;52.400;9.558;2023-03-14T08:19:34;98259.72;;;13.62;71.55
5812;BME280;2932;52.400;9.558;2023-03-14T08:21:59;98265.28;;;12.89;71.57
5812;BME280;2932;52.400;9.558;2023-03-14T08:24:25;98267.06;;;12.76;73.34
5812;BME280;2932;52.400;9.558;2023-03-14T08:26:50;98260.72;;;12.75;73.73
5812;BME280;2932;52.400;9.558;2023-03-14T08:29:15;98262.91;;;12.87;73.33
5812;BME280;2932;52.400;9.558;2023-03-14T08:31:41;98261.13;;;13.27;71.94
5812;BME280;2932;52.400;9.558;2023-03-14T08:34:06;98257.50;;;13.30;71.96
5812;BME280;2932;52.400;9.558;2023-03-14T08:36:32;98279.94;;;12.89;72.76
5812;BME280;2932;52.400;9.558;2023-03-14T08:38:57;98262.59;;;13.09;73.35
5812;BME280;2932;52.400;9.558;2023-03-14T08:41:23;98258.47;;;13.44;73.00
5812;BME280;2932;52.400;9.558;2023-03-14T08:43:48;98260.22;;;12.80;74.80
5812;BME280;2932;52.400;9.558;2023-03-14T08:46:13;98270.31;;;12.97;74.40
5812;BME280;2932;52.400;9.558;2023-03-14T08:48:39;98263.50;;;12.75;74.99
5812;BME280;2932;52.400;9.558;2023-03-14T08:51:13;98270.56;;;13.07;74.80
5812;BME280;2932;52.400;9.558;2023-03-14T08:53:39;98265.06;;;13.30;74.22
5812;BME280;2932;52.400;9.558;2023-03-14T08:56:05;98270.00;;;13.19;74.24
5812;BME280;2932;52.400;9.558;2023-03-14T08:58:32;98260.78;;;12.72;75.37
5812;BME280;2932;52.400;9.558;2023-03-14T09:00:57;98272.50;;;12.83;75.64
5812;BME280;2932;52.400;9.558;2023-03-14T09:03:23;98285.81;;;13.22;75.49
5812;BME280;2932;52.400;9.558;2023-03-14T09:05:52;98261.84;;;13.31;74.95
5812;BME280;2932;52.400;9.558;2023-03-14T09:08:18;98264.53;;;13.12;75.80
5812;BME280;2932;52.400;9.558;2023-03-14T09:10:43;98267.53;;;12.71;76.33
5812;BME280;2932;52.400;9.558;2023-03-14T09:13:08;98265.69;;;13.14;76.90
5812;BME280;2932;52.400;9.558;2023-03-14T09:15:34;98265.78;;;12.80;77.38
5812;BME280;2932;52.400;9.558;2023-03-14T09:17:59;98264.38;;;12.68;77.77
5812;BME280;2932;52.400;9.558;2023-03-14T09:20:25;98262.47;;;13.19;75.92
5812;BME280;2932;52.400;9.558;2023-03-14T09:22:50;98286.22;;;12.93;76.81
5812;BME280;2932;52.400;9.558;2023-03-14T09:25:16;98265.66;;;13.41;76.00
5812;BME280;2932;52.400;9.558;2023-03-14T09:27:41;98276.91;;;13.07;76.76
5812;BME280;2932;52.400;9.558;2023-03-14T09:30:07;98275.78;;;13.28;76.51
5812;BME280;2932;52.400;9.558;2023-03-14T09:32:33;98265.06;;;13.53;75.27
5812;BME280;2932;52.400;9.558;2023-03-14T09:34:58;98271.13;;;13.91;74.27
5812;BME280;2932;52.400;9.558;2023-03-14T09:37:23;98264.50;;;13.39;75.44
5812;BME280;2932;52.400;9.558;2023-03-14T09:39:49;98263.78;;;13.34;75.24
5812;BME280;2932;52.400;9.558;2023-03-14T09:42:17;98264.66;;;13.75;75.01
5812;BME280;2932;52.400;9.558;2023-03-14T09:47:16;98256.84;;;14.09;72.89
5812;BME280;2932;52.400;9.558;2023-03-14T09:49:42;98243.09;;;14.22;73.06
5812;BME280;2932;52.400;9.558;2023-03-14T09:52:35;98253.47;;;14.77;71.56
5812;BME280;2932;52.400;9.558;2023-03-14T09:55:10;98262.53;;;14.97;71.09
5812;BME280;2932;52.400;9.558;2023-03-14T09:57:39;98271.78;;;14.39;71.65
5812;BME280;2932;52.400;9.558;2023-03-14T10:00:14;98262.00;;;14.11;72.70
5812;BME280;2932;52.400;9.558;2023-03-14T10:02:42;98262.72;;;13.95;73.17
5812;BME280;2932;52.400;9.558;2023-03-14T10:05:18;98250.81;;;14.14;72.37
5812;BME280;2932;52.400;9.558;2023-03-14T10:07:45;98254.06;;;14.09;72.95
5812;BME280;2932;52.400;9.558;2023-03-14T10:10:22;98270.53;;;14.00;73.04
5812;BME280;2932;52.400;9.558;2023-03-14T10:12:56;98256.22;;;14.21;72.90
5812;BME280;2932;52.400;9.558;2023-03-14T10:15:33;98268.53;;;14.00;72.29
5812;BME280;2932;52.400;9.558;2023-03-14T10:18:00;98268.41;;;13.88;73.29
5812;BME280;2932;52.400;9.558;2023-03-14T10:20:33;98268.28;;;13.95;74.09
5812;BME280;2932;52.400;9.558;2023-03-14T10:23:04;98253.59;;;14.14;73.03
5812;BME280;2932;52.400;9.558;2023-03-14T10:25:33;98259.72;;;13.62;73.91
5812;BME280;2932;52.400;9.558;2023-03-14T10:27:59;98266.56;;;13.58;74.60
5812;BME280;2932;52.400;9.558;2023-03-14T10:30:43;98260.97;;;13.81;74.55
5812;BME280;2932;52.400;9.558;2023-03-14T10:33:22;98262.50;;;13.86;74.88
5812;BME280;2932;52.400;9.558;2023-03-14T10:36:40;98267.97;;;13.89;74.83
5812;BME280;2932;52.400;9.558;2023-03-14T10:38:41;98262.38;;;13.69;75.13
5812;BME280;2932;52.400;9.558;2023-03-14T10:43:43;98267.13;;;13.92;75.03
5812;BME280;2932;52.400;9.558;2023-03-14T10:46:13;98263.13;;;14.13;74.20
5812;BME280;2932;52.400;9.558;2023-03-14T10:48:39;98258.22;;;14.01;74.09
5812;BME280;2932;52.400;9.558;2023-03-14T10:53:44;98260.91;;;13.85;74.20
5812;BME280;2932;52.400;9.558;2023-03-14T10:56:20;98262.94;;;14.24;73.47
5812;BME280;2932;52.400;9.558;2023-03-14T10:58:53;98246.53;;;14.29;73.26
5812;BME280;2932;52.400;9.558;2023-03-14T11:01:36;98248.53;;;13.89;74.60
5812;BME280;2932;52.400;9.558;2023-03-14T11:12:08;98355.72;;;11.74;79.19
5812;BME280;2932;52.400;9.558;2023-03-14T11:14:43;98400.16;;;12.49;76.74
5812;BME280;2932;52.400;9.558;2023-03-14T11:25:15;98451.34;;;11.99;70.87
5812;BME280;2932;52.400;9.558;2023-03-14T11:32:44;98469.63;;;11.90;71.91
5812;BME280;2932;52.400;9.558;2023-03-14T11:40:38;98510.94;;;12.22;71.17
5812;BME280;2932;52.400;9.558;2023-03-14T11:43:37;98529.50;;;12.28;69.41
5812;BME280;2932;52.400;9.558;2023-03-14T11:46:25;98541.38;;;11.66;69.37
5812;BME280;2932;52.400;9.558;2023-03-14T11:49:11;98554.69;;;11.96;68.38
5812;BME280;2932;52.400;9.558;2023-03-14T11:51:41;98569.38;;;11.90;68.07
5812;BME280;2932;52.400;9.558;2023-03-14T11:57:21;98591.94;;;11.88;67.22
5812;BME280;2932;52.400;9.558;2023-03-14T12:10:45;98680.72;;;11.56;65.68
5812;BME280;2932;52.400;9.558;2023-03-14T12:13:14;98693.00;;;11.48;65.42
5812;BME280;2932;52.400;9.558;2023-03-14T12:15:46;98714.38;;;11.33;65.60
5812;BME280;2932;52.400;9.558;2023-03-14T12:18:21;98721.13;;;11.08;66.38
5812;BME280;2932;52.400;9.558;2023-03-14T12:20:57;98736.88;;;10.40;67.61
5812;BME280;2932;52.400;9.558;2023-03-14T12:23:23;98744.41;;;10.64;66.62
5812;BME280;2932;52.400;9.558;2023-03-14T12:26:07;98768.06;;;10.51;66.78
5812;BME280;2932;52.400;9.558;2023-03-14T12:28:33;98774.75;;;10.35;66.84
5812;BME280;2932;52.400;9.558;2023-03-14T12:39:33;98821.38;;;10.44;66.90
5812;BME280;2932;52.400;9.558;2023-03-14T12:44:49;98820.28;;;10.66;66.04
5812;BME280;2932;52.400;9.558;2023-03-14T12:49:50;98818.72;;;10.76;64.93
5812;BME280;2932;52.400;9.558;2023-03-14T12:54:51;98843.28;;;10.99;65.23
5812;BME280;2932;52.400;9.558;2023-03-14T13:00:00;98860.31;;;11.15;64.52
5812;BME280;2932;52.400;9.558;2023-03-14T13:02:38;98873.34;;;11.22;64.58
5812;BME280;2932;52.400;9.558;2023-03-14T13:05:12;98890.41;;;11.59;64.25
5812;BME280;2932;52.400;9.558;2023-03-14T13:10:30;98901.88;;;11.51;63.73
5812;BME280;2932;52.400;9.558;2023-03-14T13:15:42;98914.94;;;11.64;63.30
5812;BME280;2932;52.400;9.558;2023-03-14T13:18:12;98928.84;;;11.89;63.21
5812;BME280;2932;52.400;9.558;2023-03-14T13:20:52;98931.16;;;11.59;63.16
5812;BME280;2932;52.400;9.558;2023-03-14T13:23:23;98939.53;;;11.87;63.18
5812;BME280;2932;52.400;9.558;2023-03-14T13:25:49;98934.38;;;11.89;62.83
5812;BME280;2932;52.400;9.558;2023-03-14T13:28:15;98951.69;;;11.36;64.07
5812;BME280;2932;52.400;9.558;2023-03-14T13:30:44;98958.84;;;11.48;64.00
5812;BME280;2932;52.400;9.558;2023-03-14T13:33:19;98972.66;;;10.47;65.32
5812;BME280;2932;52.400;9.558;2023-03-14T13:35:54;98982.50;;;10.38;67.17
5812;BME280;2932;52.400;9.558;2023-03-14T13:38:22;98987.06;;;10.81;66.60
5812;BME280;2932;52.400;9.558;2023-03-14T13:40:50;98988.75;;;11.00;66.57
5812;BME280;2932;52.400;9.558;2023-03-14T13:45:53;98998.13;;;10.74;67.62
5812;BME280;2932;52.400;9.558;2023-03-14T13:48:21;99002.03;;;10.69;67.68
5812;BME280;2932;52.400;9.558;2023-03-14T13:50:52;99012.41;;;10.90;67.12
5812;BME280;2932;52.400;9.558;2023-03-14T13:53:18;99016.53;;;11.32;66.37
5812;BME280;2932;52.400;9.558;2023-03-14T13:55:43;99022.97;;;11.57;66.13
5812;BME280;2932;52.400;9.558;2023-03-14T13:58:19;99039.66;;;11.79;65.26
5812;BME280;2932;52.400;9.558;2023-03-14T14:00:57;99035.31;;;11.81;64.80
5812;BME280;2932;52.400;9.558;2023-03-14T14:03:23;99051.53;;;11.79;63.56
5812;BME280;2932;52.400;9.558;2023-03-14T14:05:49;99061.34;;;11.62;63.81
5812;BME280;2932;52.400;9.558;2023-03-14T14:08:14;99060.53;;;11.48;63.59
5812;BME280;2932;52.400;9.558;2023-03-14T14:10:40;99071.22;;;11.53;63.38
5812;BME280;2932;52.400;9.558;2023-03-14T14:13:10;99071.09;;;11.24;63.64
5812;BME280;2932;52.400;9.558;2023-03-14T14:15:42;99089.25;;;11.15;63.39
5812;BME280;2932;52.400;9.558;2023-03-14T14:18:11;99093.94;;;11.07;64.08
5812;BME280;2932;52.400;9.558;2023-03-14T14:20:40;99107.72;;;10.96;63.33
5812;BME280;2932;52.400;9.558;2023-03-14T14:23:19;99114.72;;;10.83;62.15
5812;BME280;2932;52.400;9.558;2023-03-14T14:25:50;99123.84;;;10.87;61.28
5812;BME280;2932;52.400;9.558;2023-03-14T14:31:16;99128.91;;;11.36;60.34
5812;BME280;2932;52.400;9.558;2023-03-14T14:34:03;99158.09;;;11.23;59.52
5812;BME280;2932;52.400;9.558;2023-03-14T14:36:40;99160.84;;;11.16;59.11
5812;BME280;2932;52.400;9.558;2023-03-14T14:41:40;99187.97;;;11.58;59.10
5812;BME280;2932;52.400;9.558;2023-03-14T14:44:07;99202.31;;;11.09;57.88
5812;BME280;2932;52.400;9.558;2023-03-14T14:46:35;99210.63;;;10.65;58.15
5812;BME280;2932;52.400;9.558;2023-03-14T14:49:16;99215.41;;;10.68;56.52
5812;BME280;2932;52.400;9.558;2023-03-14T14:51:47;99227.97;;;10.62;55.27
5812;BME280;2932;52.400;9.558;2023-03-14T14:54:18;99239.31;;;10.16;55.89
5812;BME280;2932;52.400;9.558;2023-03-14T14:56:52;99248.19;;;9.99;54.48